createdAt,value
2022-09-21T00:01:31.071Z,19.17
2022-09-21T00:04:02.843Z,18.99
2022-09-21T00:06:33.763Z,19.46
2022-09-21T00:09:01.329Z,19.47
2022-09-21T00:11:30.853Z,19.54
2022-09-21T00:14:07.348Z,19.37
2022-09-21T00:16:35.408Z,19.40
2022-09-21T00:19:04.191Z,19.59
2022-09-21T00:21:34.376Z,18.98
2022-09-21T00:24:02.781Z,19.00
2022-09-21T00:26:30.962Z,19.14
2022-09-21T00:29:01.870Z,19.34
2022-09-21T00:31:34.969Z,19.34
2022-09-21T00:34:07.718Z,19.45
2022-09-21T00:36:37.205Z,19.30
2022-09-21T00:39:04.848Z,18.73
2022-09-21T00:41:34.094Z,19.03
2022-09-21T00:44:34.326Z,19.38
2022-09-21T00:47:22.040Z,19.17
2022-09-21T00:49:54.696Z,18.96
2022-09-21T00:52:25.373Z,18.87
2022-09-21T00:55:04.342Z,19.44
2022-09-21T00:57:32.776Z,19.20
2022-09-21T01:00:08.502Z,19.28
2022-09-21T01:02:38.224Z,18.96
2022-09-21T01:05:08.907Z,19.35
2022-09-21T01:07:43.031Z,19.45
2022-09-21T01:10:15.043Z,19.32
2022-09-21T01:12:51.111Z,19.04
2022-09-21T01:15:52.119Z,18.81
2022-09-21T01:18:33.751Z,19.05
2022-09-21T01:21:31.087Z,19.27
2022-09-21T01:24:41.249Z,18.83
2022-09-21T01:27:59.892Z,18.87
2022-09-21T01:30:34.522Z,18.70
2022-09-21T01:33:23.463Z,18.76
2022-09-21T01:36:02.308Z,18.95
2022-09-21T01:38:54.296Z,18.81
2022-09-21T01:41:28.241Z,19.00
2022-09-21T01:44:01.735Z,18.96
2022-09-21T01:46:32.343Z,18.60
2022-09-21T01:49:16.052Z,18.58
2022-09-21T01:51:51.609Z,18.54
2022-09-21T01:54:30.825Z,18.47
2022-09-21T01:57:10.638Z,18.35
2022-09-21T01:59:54.509Z,18.08
2022-09-21T02:03:15.650Z,18.14
2022-09-21T02:05:43.332Z,18.05
2022-09-21T02:08:11.406Z,17.87
2022-09-21T02:10:49.847Z,18.04
2022-09-21T02:13:20.727Z,17.97
2022-09-21T02:16:10.841Z,18.07
2022-09-21T02:18:43.870Z,17.83
2022-09-21T02:21:41.849Z,17.71
2022-09-21T02:24:32.511Z,17.51
2022-09-21T02:27:09.170Z,17.47
2022-09-21T02:30:02.019Z,17.24
2022-09-21T02:32:51.374Z,17.18
2022-09-21T02:35:44.384Z,16.93
2022-09-21T02:38:41.756Z,17.35
2022-09-21T02:41:25.478Z,17.28
2022-09-21T02:44:09.003Z,17.18
2022-09-21T02:46:54.352Z,17.21
2022-09-21T02:49:36.901Z,17.18
2022-09-21T02:52:09.499Z,17.04
2022-09-21T02:54:37.284Z,17.21
2022-09-21T02:57:06.081Z,16.83
2022-09-21T02:59:33.481Z,16.98
2022-09-21T03:02:07.062Z,16.93
2022-09-21T03:04:34.535Z,17.12
2022-09-21T03:07:01.686Z,17.28
2022-09-21T03:09:29.254Z,16.91
2022-09-21T03:11:56.394Z,17.34
2022-09-21T03:14:23.568Z,17.39
2022-09-21T03:16:50.626Z,17.43
2022-09-21T03:19:17.839Z,17.37
2022-09-21T03:21:45.024Z,17.02
2022-09-21T03:24:12.271Z,17.10
2022-09-21T03:26:39.355Z,17.01
2022-09-21T03:29:06.645Z,17.05
2022-09-21T03:31:34.646Z,17.40
2022-09-21T03:34:01.702Z,17.35
2022-09-21T03:36:28.711Z,17.17
2022-09-21T03:38:56.220Z,17.32
2022-09-21T03:41:23.202Z,17.20
2022-09-21T03:43:50.380Z,17.02
2022-09-21T03:46:18.857Z,17.05
2022-09-21T03:48:48.585Z,17.04
2022-09-21T03:51:15.676Z,16.95
2022-09-21T03:53:42.749Z,16.86
2022-09-21T03:56:09.817Z,16.98
2022-09-21T03:58:36.930Z,16.85
2022-09-21T04:01:04.681Z,16.91
2022-09-21T04:03:33.945Z,16.85
2022-09-21T04:06:01.792Z,16.83
2022-09-21T04:08:33.031Z,16.37
2022-09-21T04:11:03.496Z,16.62
2022-09-21T04:13:30.485Z,16.72
2022-09-21T04:15:58.359Z,16.92
2022-09-21T04:18:25.583Z,16.62
2022-09-21T04:20:55.564Z,16.97
2022-09-21T04:23:23.049Z,17.01
2022-09-21T04:25:55.442Z,17.16
2022-09-21T04:28:26.003Z,17.16
2022-09-21T04:30:54.376Z,16.83
2022-09-21T04:33:22.501Z,17.04
2022-09-21T04:35:55.485Z,16.75
2022-09-21T04:38:22.503Z,16.70
2022-09-21T04:40:59.135Z,16.27
2022-09-21T04:43:26.532Z,16.77
2022-09-21T04:45:53.575Z,16.90
2022-09-21T04:48:20.838Z,16.84
2022-09-21T04:50:51.597Z,17.02
2022-09-21T04:53:18.675Z,17.34
2022-09-21T04:55:46.498Z,17.40
2022-09-21T04:58:13.539Z,16.72
2022-09-21T05:00:40.621Z,17.01
2022-09-21T05:03:09.993Z,16.81
2022-09-21T05:05:37.066Z,16.80
2022-09-21T05:08:04.164Z,17.07
2022-09-21T05:10:31.448Z,17.06
2022-09-21T05:12:58.434Z,16.89
2022-09-21T05:15:25.583Z,17.61
2022-09-21T05:17:52.757Z,17.71
2022-09-21T05:20:19.786Z,18.11
2022-09-21T05:22:46.890Z,18.01
2022-09-21T05:25:14.038Z,17.98
2022-09-21T05:27:41.900Z,18.27
2022-09-21T05:30:10.901Z,18.17
2022-09-21T05:32:43.843Z,18.51
2022-09-21T05:35:27.905Z,18.34
2022-09-21T05:38:18.115Z,17.93
2022-09-21T05:40:50.424Z,18.11
2022-09-21T05:43:17.727Z,18.03
2022-09-21T05:45:50.418Z,18.40
2022-09-21T05:48:28.014Z,18.78
2022-09-21T05:51:29.737Z,18.69
2022-09-21T05:54:07.345Z,18.98
2022-09-21T05:57:03.585Z,18.66
2022-09-21T06:00:03.323Z,18.90
2022-09-21T06:02:48.967Z,18.87
2022-09-21T06:05:17.108Z,18.62
2022-09-21T06:07:44.246Z,19.03
2022-09-21T06:10:14.145Z,19.47
2022-09-21T06:12:41.594Z,19.44
2022-09-21T06:15:13.880Z,19.71
2022-09-21T06:17:41.270Z,19.52
2022-09-21T06:20:09.029Z,19.87
2022-09-21T06:22:36.324Z,19.71
2022-09-21T06:25:03.431Z,19.95
2022-09-21T06:27:30.480Z,20.94
2022-09-21T06:29:57.505Z,22.20
2022-09-21T06:32:27.115Z,23.37
2022-09-21T06:34:58.776Z,24.15
2022-09-21T06:37:28.251Z,22.76
2022-09-21T06:39:55.283Z,23.07
2022-09-21T06:42:22.346Z,22.84
2022-09-21T06:44:49.373Z,22.23
2022-09-21T06:47:16.345Z,22.26
2022-09-21T06:49:43.321Z,22.19
2022-09-21T06:52:10.305Z,22.50
2022-09-21T06:54:37.310Z,22.12
2022-09-21T06:57:04.354Z,23.04
2022-09-21T06:59:34.409Z,24.09
2022-09-21T07:02:01.410Z,25.78
2022-09-21T07:04:32.049Z,25.72
2022-09-21T07:07:01.672Z,26.36
2022-09-21T07:12:20.487Z,27.83
2022-09-21T07:14:47.659Z,26.88
2022-09-21T07:17:16.063Z,25.79
2022-09-21T07:19:43.254Z,26.74
2022-09-21T07:22:10.526Z,26.95
2022-09-21T07:24:37.528Z,28.09
2022-09-21T07:27:04.822Z,28.42
2022-09-21T07:29:32.265Z,27.62
2022-09-21T07:32:01.817Z,28.94
2022-09-21T07:34:37.193Z,29.55
2022-09-21T07:37:04.790Z,30.75
2022-09-21T07:39:35.573Z,30.38
2022-09-21T07:42:02.946Z,29.16
2022-09-21T07:44:30.071Z,27.25
2022-09-21T07:46:57.091Z,28.55
2022-09-21T07:49:24.336Z,28.33
2022-09-21T07:51:51.348Z,27.86
2022-09-21T07:54:18.665Z,27.56
2022-09-21T07:57:05.583Z,27.12
2022-09-21T07:59:35.170Z,27.21
2022-09-21T08:02:04.772Z,27.81
2022-09-21T08:04:31.875Z,27.76
2022-09-21T08:06:58.847Z,29.06
2022-09-21T08:09:27.937Z,29.65
2022-09-21T08:11:55.778Z,30.16
2022-09-21T08:14:26.301Z,31.05
2022-09-21T08:16:56.195Z,31.53
2022-09-21T08:19:26.692Z,29.96
2022-09-21T08:21:57.664Z,28.34
2022-09-21T08:24:27.760Z,27.39
2022-09-21T08:26:56.133Z,27.91
2022-09-21T08:29:24.998Z,27.61
2022-09-21T08:31:53.675Z,26.79
2022-09-21T08:34:20.799Z,26.20
2022-09-21T08:36:55.314Z,26.03
2022-09-21T08:39:25.217Z,26.84
2022-09-21T08:42:16.893Z,27.87
2022-09-21T08:45:01.568Z,29.66
2022-09-21T08:47:49.232Z,30.33
2022-09-21T08:50:41.819Z,29.07
2022-09-21T08:53:40.458Z,28.05
2022-09-21T08:56:15.289Z,27.37
2022-09-21T08:58:43.627Z,26.92
2022-09-21T09:01:40.158Z,26.12
2022-09-21T09:04:54.525Z,25.05
2022-09-21T09:07:31.495Z,24.95
2022-09-21T09:10:30.843Z,25.15
2022-09-21T09:13:34.067Z,25.14
2022-09-21T09:16:19.461Z,26.56
2022-09-21T09:18:53.037Z,26.31
2022-09-21T09:21:38.456Z,26.22
2022-09-21T09:24:41.936Z,27.01
2022-09-21T09:27:32.637Z,26.89
2022-09-21T09:30:11.726Z,27.55
2022-09-21T09:33:12.904Z,28.09
2022-09-21T09:36:00.453Z,28.16
2022-09-21T09:38:57.632Z,27.87
2022-09-21T09:42:20.157Z,27.81
2022-09-21T09:45:10.037Z,28.19
2022-09-21T09:48:26.628Z,27.76
2022-09-21T09:50:55.992Z,28.29
2022-09-21T09:53:26.710Z,29.19
2022-09-21T09:55:58.565Z,28.26
2022-09-21T09:58:37.340Z,27.27
2022-09-21T10:01:05.384Z,28.59
2022-09-21T10:03:33.424Z,27.45
2022-09-21T10:06:00.417Z,26.26
2022-09-21T10:08:49.559Z,25.52
2022-09-21T10:11:17.517Z,25.90
2022-09-21T10:13:48.818Z,25.72
2022-09-21T10:16:22.164Z,25.51
2022-09-21T10:19:02.856Z,25.47
2022-09-21T10:21:45.079Z,25.13
2022-09-21T10:24:37.241Z,25.24
2022-09-21T10:27:11.816Z,24.86
2022-09-21T10:29:49.106Z,24.27
2022-09-21T10:32:20.909Z,24.19
2022-09-21T10:35:15.824Z,22.48
2022-09-21T10:38:09.535Z,21.88
2022-09-21T10:40:39.590Z,21.86
2022-09-21T10:43:20.668Z,21.34
2022-09-21T10:45:56.168Z,21.64
2022-09-21T10:48:28.404Z,22.62
2022-09-21T10:50:58.358Z,22.84
2022-09-21T10:53:30.834Z,22.51
2022-09-21T10:56:20.760Z,23.77
2022-09-21T10:58:48.930Z,23.30
2022-09-21T11:01:23.691Z,25.03
2022-09-21T11:04:03.298Z,26.27
2022-09-21T11:06:32.076Z,27.67
2022-09-21T11:09:09.408Z,29.32
2022-09-21T11:12:30.075Z,28.96
2022-09-21T11:16:17.436Z,26.71
2022-09-21T11:19:20.668Z,25.92
2022-09-21T11:22:08.291Z,25.77
2022-09-21T11:24:53.752Z,26.46
2022-09-21T11:27:29.934Z,26.49
2022-09-21T11:30:10.324Z,27.68
2022-09-21T11:33:19.044Z,27.23
2022-09-21T11:36:15.919Z,27.58
2022-09-21T11:39:28.706Z,27.60
2022-09-21T11:42:06.302Z,27.06
2022-09-21T11:44:39.508Z,26.75
2022-09-21T11:47:35.900Z,27.31
2022-09-21T11:50:53.242Z,26.18
2022-09-21T11:53:56.399Z,26.76
2022-09-21T11:56:56.649Z,27.35
2022-09-21T11:59:58.770Z,27.88
2022-09-21T12:03:08.470Z,27.88
2022-09-21T12:06:14.777Z,28.49
2022-09-21T12:09:22.035Z,27.51
2022-09-21T12:12:09.498Z,26.13
2022-09-21T12:15:06.208Z,25.88
2022-09-21T12:17:55.370Z,25.74
2022-09-21T12:20:50.607Z,25.20
2022-09-21T12:23:38.469Z,25.82
2022-09-21T12:26:09.647Z,26.46
2022-09-21T12:28:44.832Z,26.75
2022-09-21T12:31:29.588Z,27.56
2022-09-21T12:34:19.843Z,27.38
2022-09-21T12:37:32.774Z,27.84
2022-09-21T12:40:18.043Z,27.37
2022-09-21T12:43:36.816Z,28.61
2022-09-21T12:46:31.328Z,28.82
2022-09-21T12:49:15.233Z,29.41
2022-09-21T12:51:58.813Z,29.60
2022-09-21T12:55:17.580Z,29.47
2022-09-21T12:58:24.806Z,29.88
2022-09-21T13:00:59.966Z,30.34
2022-09-21T13:03:40.685Z,30.19
2022-09-21T13:07:17.159Z,28.90
2022-09-21T13:09:46.844Z,28.74
2022-09-21T13:12:13.734Z,27.88
2022-09-21T13:14:52.183Z,27.32
2022-09-21T13:17:30.565Z,26.75
2022-09-21T13:20:21.969Z,26.65
2022-09-21T13:22:49.443Z,26.95
2022-09-21T13:25:28.146Z,26.35
2022-09-21T13:28:04.023Z,25.53
2022-09-21T13:30:47.600Z,25.20
2022-09-21T13:33:21.115Z,25.64
2022-09-21T13:35:51.038Z,25.88
2022-09-21T13:38:45.342Z,25.59
2022-09-21T13:41:18.274Z,25.77
2022-09-21T13:44:01.169Z,25.95
2022-09-21T13:46:37.785Z,25.54
2022-09-21T13:49:13.979Z,26.22
2022-09-21T13:52:13.619Z,26.89
2022-09-21T13:55:49.120Z,27.56
2022-09-21T13:58:29.666Z,27.68
2022-09-21T14:01:05.487Z,27.31
2022-09-21T14:03:38.436Z,27.13
2022-09-21T14:06:08.837Z,27.04
2022-09-21T14:08:49.486Z,26.81
2022-09-21T14:11:33.975Z,26.47
2022-09-21T14:14:37.494Z,26.48
2022-09-21T14:17:37.853Z,25.95
2022-09-21T14:20:30.870Z,25.00
2022-09-21T14:23:22.338Z,25.95
2022-09-21T14:26:02.104Z,25.01
2022-09-21T14:28:42.061Z,25.73
2022-09-21T14:31:23.684Z,25.63
2022-09-21T14:33:55.303Z,25.00
2022-09-21T14:36:38.345Z,25.66
2022-09-21T14:39:08.406Z,25.72
2022-09-21T14:41:37.004Z,25.68
2022-09-21T14:44:08.311Z,25.77
2022-09-21T14:46:59.803Z,25.93
2022-09-21T14:50:05.527Z,26.02
2022-09-21T14:53:17.357Z,25.65
2022-09-21T14:55:53.513Z,25.76
2022-09-21T14:58:22.203Z,25.34
2022-09-21T15:00:50.345Z,24.63
2022-09-21T15:03:24.677Z,24.38
2022-09-21T15:07:02.081Z,23.67
2022-09-21T15:10:15.130Z,24.04
2022-09-21T15:13:20.436Z,23.48
2022-09-21T15:16:22.052Z,24.32
2022-09-21T15:19:00.115Z,24.37
2022-09-21T15:21:30.883Z,24.63
2022-09-21T15:24:00.260Z,24.27
2022-09-21T15:26:32.591Z,24.69
2022-09-21T15:29:18.265Z,24.81
2022-09-21T15:31:47.759Z,24.26
2022-09-21T15:34:18.552Z,23.47
2022-09-21T15:36:49.151Z,23.57
2022-09-21T15:39:31.458Z,23.51
2022-09-21T15:42:10.616Z,23.47
2022-09-21T15:44:39.394Z,23.77
2022-09-21T15:47:13.317Z,23.75
2022-09-21T15:49:43.950Z,24.14
2022-09-21T15:52:34.097Z,23.55
2022-09-21T15:55:23.764Z,22.95
2022-09-21T15:57:58.337Z,23.21
2022-09-21T16:00:36.908Z,23.21
2022-09-21T16:03:22.899Z,22.66
2022-09-21T16:05:56.333Z,22.91
2022-09-21T16:08:36.709Z,23.10
2022-09-21T16:11:19.617Z,22.92
2022-09-21T16:14:07.585Z,22.71
2022-09-21T16:17:09.674Z,22.76
2022-09-21T16:20:09.438Z,22.23
2022-09-21T16:22:44.284Z,21.79
2022-09-21T16:25:37.693Z,21.90
2022-09-21T16:28:32.069Z,22.07
2022-09-21T16:30:59.261Z,21.16
2022-09-21T16:33:49.171Z,21.58
2022-09-21T16:36:22.324Z,21.35
2022-09-21T16:38:56.257Z,21.65
2022-09-21T16:41:32.673Z,21.39
2022-09-21T16:44:00.757Z,21.12
2022-09-21T16:46:28.215Z,21.21
2022-09-21T16:48:55.653Z,21.07
2022-09-21T16:51:24.540Z,21.07
2022-09-21T16:53:52.388Z,20.87
2022-09-21T16:56:19.934Z,21.03
2022-09-21T16:58:47.220Z,21.27
2022-09-21T17:01:21.442Z,21.00
2022-09-21T17:03:48.642Z,21.10
2022-09-21T17:06:19.654Z,20.99
2022-09-21T17:08:48.319Z,20.76
2022-09-21T17:11:20.272Z,20.71
2022-09-21T17:13:49.038Z,20.35
2022-09-21T17:16:18.410Z,20.67
2022-09-21T17:18:49.555Z,20.50
2022-09-21T17:21:17.275Z,20.48
2022-09-21T17:23:46.716Z,20.39
2022-09-21T17:26:17.826Z,20.46
2022-09-21T17:28:45.605Z,20.16
2022-09-21T17:31:24.107Z,20.24
2022-09-21T17:33:51.400Z,20.27
2022-09-21T17:36:19.030Z,20.40
2022-09-21T17:38:45.992Z,19.91
2022-09-21T17:41:29.704Z,20.16
2022-09-21T17:43:58.560Z,20.09
2022-09-21T17:46:39.326Z,19.96
2022-09-21T17:49:07.977Z,19.84
2022-09-21T17:51:54.028Z,19.90
2022-09-21T17:54:23.859Z,19.47
2022-09-21T17:57:11.781Z,19.69
2022-09-21T17:59:40.221Z,19.71
2022-09-21T18:02:23.915Z,19.52
2022-09-21T18:04:57.942Z,19.34
2022-09-21T18:07:25.591Z,19.12
2022-09-21T18:09:53.273Z,19.65
2022-09-21T18:12:48.692Z,19.38
2022-09-21T18:15:33.826Z,19.19
2022-09-21T18:18:31.614Z,19.37
2022-09-21T18:21:11.234Z,19.33
2022-09-21T18:23:50.124Z,19.44
2022-09-21T18:26:18.167Z,19.16
2022-09-21T18:28:59.403Z,19.28
2022-09-21T18:32:04.139Z,19.15
2022-09-21T18:35:03.980Z,19.29
2022-09-21T18:37:39.897Z,19.19
2022-09-21T18:41:04.305Z,19.06
2022-09-21T18:44:00.632Z,18.81
2022-09-21T18:46:59.025Z,18.96
2022-09-21T18:50:04.030Z,18.90
2022-09-21T18:53:07.681Z,18.88
2022-09-21T18:55:37.299Z,19.01
2022-09-21T18:58:04.674Z,18.37
2022-09-21T19:00:35.668Z,18.63
2022-09-21T19:03:23.686Z,18.24
2022-09-21T19:06:08.970Z,18.35
2022-09-21T19:08:52.530Z,18.57
2022-09-21T19:11:37.050Z,18.36
2022-09-21T19:14:33.546Z,18.39
2022-09-21T19:17:21.635Z,18.44
2022-09-21T19:20:22.010Z,18.44
2022-09-21T19:23:16.551Z,18.28
2022-09-21T19:25:50.059Z,18.50
2022-09-21T19:29:03.353Z,18.35
2022-09-21T19:31:36.044Z,18.47
2022-09-21T19:34:19.251Z,18.58
2022-09-21T19:36:52.099Z,18.71
2022-09-21T19:39:19.901Z,18.58
2022-09-21T19:42:27.872Z,18.71
2022-09-21T19:45:22.015Z,18.63
2022-09-21T19:48:04.885Z,18.56
2022-09-21T19:50:49.820Z,18.59
2022-09-21T19:53:36.071Z,18.71
2022-09-21T19:56:27.154Z,18.49
2022-09-21T19:59:13.245Z,18.38
2022-09-21T20:01:52.693Z,18.43
2022-09-21T20:04:38.504Z,18.46
2022-09-21T20:07:58.324Z,18.24
2022-09-21T20:10:42.197Z,17.99
2022-09-21T20:13:33.066Z,18.09
2022-09-21T20:16:21.908Z,17.90
2022-09-21T20:19:06.421Z,17.92
2022-09-21T20:21:41.173Z,17.91
2022-09-21T20:24:50.074Z,17.64
2022-09-21T20:28:03.503Z,17.67
2022-09-21T20:30:34.772Z,17.58
2022-09-21T20:33:14.376Z,17.31
2022-09-21T20:35:45.469Z,17.38
2022-09-21T20:38:12.657Z,17.22
2022-09-21T20:40:40.793Z,16.97
2022-09-21T20:43:10.023Z,17.09
2022-09-21T20:45:40.866Z,16.94
2022-09-21T20:48:14.620Z,16.91
2022-09-21T20:50:50.496Z,16.65
2022-09-21T20:53:19.425Z,16.38
2022-09-21T20:55:58.254Z,16.21
2022-09-21T20:58:31.336Z,16.50
2022-09-21T21:01:08.821Z,16.25
2022-09-21T21:03:38.847Z,16.22
2022-09-21T21:06:13.957Z,16.23
2022-09-21T21:08:44.183Z,16.10
2022-09-21T21:11:11.353Z,16.10
2022-09-21T21:13:38.450Z,15.81
2022-09-21T21:16:11.560Z,16.00
2022-09-21T21:18:42.432Z,16.08
2022-09-21T21:21:11.033Z,15.90
2022-09-21T21:23:56.937Z,16.29
2022-09-21T21:26:43.881Z,15.97
2022-09-21T21:29:13.916Z,15.85
2022-09-21T21:31:43.506Z,16.09
2022-09-21T21:34:10.950Z,16.03
2022-09-21T21:36:38.013Z,16.09
2022-09-21T21:39:10.695Z,16.11
2022-09-21T21:41:37.790Z,15.64
2022-09-21T21:44:04.924Z,15.86
2022-09-21T21:46:32.225Z,15.93
2022-09-21T21:49:01.864Z,15.73
2022-09-21T21:51:29.629Z,16.01
2022-09-21T21:53:56.802Z,15.21
2022-09-21T21:56:24.077Z,15.25
2022-09-21T21:58:55.304Z,15.59
2022-09-21T22:01:26.822Z,15.28
2022-09-21T22:04:02.850Z,15.02
2022-09-21T22:06:32.193Z,14.75
2022-09-21T22:09:00.495Z,14.98
2022-09-21T22:11:31.426Z,15.01
2022-09-21T22:14:04.005Z,15.26
2022-09-21T22:16:34.135Z,14.96
2022-09-21T22:19:13.010Z,14.96
2022-09-21T22:21:46.034Z,15.14
2022-09-21T22:24:15.299Z,14.62
2022-09-21T22:26:45.168Z,14.35
2022-09-21T22:29:14.166Z,15.14
2022-09-21T22:31:48.422Z,14.75
2022-09-21T22:34:16.705Z,15.00
2022-09-21T22:36:46.320Z,15.03
2022-09-21T22:39:13.883Z,14.79
2022-09-21T22:41:43.878Z,15.11
2022-09-21T22:44:11.392Z,15.13
2022-09-21T22:46:41.593Z,14.71
2022-09-21T22:49:08.640Z,14.81
2022-09-21T22:51:36.368Z,14.67
2022-09-21T22:54:03.597Z,14.86
2022-09-21T22:56:32.943Z,14.28
2022-09-21T22:59:04.062Z,14.76
2022-09-21T23:01:35.331Z,14.79
2022-09-21T23:04:09.872Z,14.49
2022-09-21T23:06:41.143Z,14.52
2022-09-21T23:09:20.233Z,14.38
2022-09-21T23:11:55.629Z,14.34
2022-09-21T23:14:25.918Z,14.55
2022-09-21T23:16:53.224Z,14.59
2022-09-21T23:19:20.297Z,14.68
2022-09-21T23:21:51.097Z,14.56
2022-09-21T23:24:19.920Z,14.50
2022-09-21T23:26:47.846Z,14.80
2022-09-21T23:29:16.132Z,14.51
2022-09-21T23:31:46.103Z,14.52
2022-09-21T23:34:15.156Z,14.37
2022-09-21T23:36:44.017Z,14.58
2022-09-21T23:39:14.341Z,14.53
2022-09-21T23:41:41.605Z,14.58
2022-09-21T23:44:08.894Z,14.36
2022-09-21T23:46:38.434Z,14.27
2022-09-21T23:49:05.981Z,14.15
2022-09-21T23:51:36.504Z,14.27
2022-09-21T23:54:03.949Z,14.65
2022-09-21T23:56:31.765Z,14.65
2022-09-21T23:58:59.322Z,14.61
